Detall de PIREP

Printer-friendly versionPDF version

[2015/04/18 10:29:00]
Flight IATA:CT2303
Pilot Number:012
Company ICAO:CAT
Aircraft Type:F70/A
PAX:79
Aircraft Registration:PFJ
Departing Airport: LIBR
Destination Airport: LIEA
Alternate Airport:LIEO
Online: VATSIM
Route:ROBOT UL995 LUXIL UM742 SOR UM603 MOROB
Flight Level:F320
No Slew and time accel
No pause
Crash detect
Detect pilot in Cockpit between each 30 and 45 minutes
10:29 Zero fuel Weight: 71560 Lbs, Fuel Weight: 10008 Lbs
10:29 VATSIM:LIBR 180945Z 17006KT 8000 FEW020 24/18 Q1013 NOSIG
10:29 VATSIM:LIEA 180950Z 20012KT 9999 FEW018 18/13 Q1017
10:30 Parking Brakes off
10:40 Take-off
10:40 Take off Weight: 81119 Lbs
10:40 Wind: 186º @ 008 Knots Heading: 316º
10:40 POS N40º 40´ 07´´ E017º 56´ 03´´
10:40 Gear Up: 152 Knots
10:40 Flaps:1 at 152 Knots
10:40 Flaps:0 at 172 Knots
10:55 Wind:278º@068 Knots Heading: 266º Ground Speed: 289 Knots Altitude 31286 ft
10:55 TOC
10:55 Fuel Weight: 7727 Lb
11:10 Wind:276º@067 Knots Heading: 264º Ground Speed: 380 Knots Altitude 32070 ft
11:25 Wind:276º@062 Knots Heading: 267º Ground Speed: 387 Knots Altitude 32034 ft
11:40 Wind:269º@064 Knots Heading: 272º Ground Speed: 388 Knots Altitude 32034 ft
11:40 TOD
11:40 Fuel Weight: 4198 Lb
11:55 Wind:261º@006 Knots Heading: 325º Ground Speed: 258 Knots Altitude 5055 ft
11:56 Flaps:1 at 222 Knots
11:57 Gear Down: 196 Knots
11:58 Flaps:2 at 180 Knots
11:58 Flaps:3 at 180 Knots
11:59 Flaps:4 at 139 Knots
12:01 TouchDown:Rate -245 ft/min Speed: 112 Knots
12:01 VATSIM:LIEA 181150Z 18005KT 140V230 9999 FEW020 20/14 Q1015
12:01 Land
12:01 Wind:182º@006 Knots
12:01 Heading: 207º
12:01 Flight Duration: 01:21
12:01 Landing Weight: 74852 Lbs
12:01 POS N40º 37´ 52´´ E008º 17´ 25´´
12:04 Parking brakes on
12:04 Block to Block Duration: 01:34
12:04 Final Fuel: 3196 Lbls
12:04 Spent Fuel: 6812 Lbls
12:04 Flight Length: 459 NM
12:04 TOD Land Length: 101 NM

Exportar CSV

Powered by Drupal - Modified by Danger4k